sensor_id;sensor_type;location;lat;lon;timestamp;pressure;altitude;pressure_sealevel;temperature;humidity
17060;BME280;8646;49.716;9.266;2023-04-28T00:00:57;100167.63;;;11.64;68.86
17060;BME280;8646;49.716;9.266;2023-04-28T00:03:59;100173.34;;;11.58;68.88
17060;BME280;8646;49.716;9.266;2023-04-28T00:07:03;100170.53;;;11.60;68.71
17060;BME280;8646;49.716;9.266;2023-04-28T00:10:08;100163.94;;;11.65;68.43
17060;BME280;8646;49.716;9.266;2023-04-28T00:13:11;100168.50;;;11.65;68.11
17060;BME280;8646;49.716;9.266;2023-04-28T00:16:14;100159.09;;;11.72;68.41
17060;BME280;8646;49.716;9.266;2023-04-28T00:19:17;100156.31;;;11.73;68.04
17060;BME280;8646;49.716;9.266;2023-04-28T00:22:19;100158.34;;;11.68;68.04
17060;BME280;8646;49.716;9.266;2023-04-28T00:25:23;100152.78;;;11.71;68.13
17060;BME280;8646;49.716;9.266;2023-04-28T00:28:26;100141.06;;;11.71;68.04
17060;BME280;8646;49.716;9.266;2023-04-28T00:31:32;100140.56;;;11.81;66.94
17060;BME280;8646;49.716;9.266;2023-04-28T00:34:35;100133.53;;;11.77;66.81
17060;BME280;8646;49.716;9.266;2023-04-28T00:37:38;100137.00;;;11.62;67.39
17060;BME280;8646;49.716;9.266;2023-04-28T00:40:42;100131.56;;;11.62;67.36
17060;BME280;8646;49.716;9.266;2023-04-28T00:43:46;100128.66;;;11.67;67.59
17060;BME280;8646;49.716;9.266;2023-04-28T00:46:49;100126.97;;;11.64;67.35
17060;BME280;8646;49.716;9.266;2023-04-28T00:49:52;100120.91;;;11.59;67.27
17060;BME280;8646;49.716;9.266;2023-04-28T00:52:55;100128.28;;;11.56;67.56
17060;BME280;8646;49.716;9.266;2023-04-28T00:55:59;100122.94;;;11.54;67.88
17060;BME280;8646;49.716;9.266;2023-04-28T00:59:02;100136.34;;;11.57;67.69
17060;BME280;8646;49.716;9.266;2023-04-28T01:02:05;100125.69;;;11.71;67.45
17060;BME280;8646;49.716;9.266;2023-04-28T01:05:09;100114.28;;;11.83;67.18
17060;BME280;8646;49.716;9.266;2023-04-28T01:08:12;100103.06;;;11.72;67.43
17060;BME280;8646;49.716;9.266;2023-04-28T01:11:16;100098.22;;;11.60;67.76
17060;BME280;8646;49.716;9.266;2023-04-28T01:14:19;100092.75;;;11.62;67.40
17060;BME280;8646;49.716;9.266;2023-04-28T01:17:22;100082.63;;;11.65;67.72
17060;BME280;8646;49.716;9.266;2023-04-28T01:20:25;100093.63;;;11.62;67.66
17060;BME280;8646;49.716;9.266;2023-04-28T01:23:28;100089.81;;;11.66;67.79
17060;BME280;8646;49.716;9.266;2023-04-28T01:26:32;100088.66;;;11.53;68.43
17060;BME280;8646;49.716;9.266;2023-04-28T01:29:35;100078.78;;;11.35;68.57
17060;BME280;8646;49.716;9.266;2023-04-28T01:32:37;100086.09;;;11.33;68.96
17060;BME280;8646;49.716;9.266;2023-04-28T01:35:40;100093.31;;;11.51;68.20
17060;BME280;8646;49.716;9.266;2023-04-28T01:38:43;100086.44;;;11.61;68.17
17060;BME280;8646;49.716;9.266;2023-04-28T01:41:47;100081.97;;;11.60;67.59
17060;BME280;8646;49.716;9.266;2023-04-28T01:44:50;100075.91;;;11.55;67.83
17060;BME280;8646;49.716;9.266;2023-04-28T01:47:53;100071.78;;;11.48;68.56
17060;BME280;8646;49.716;9.266;2023-04-28T01:50:56;100062.69;;;11.49;69.08
17060;BME280;8646;49.716;9.266;2023-04-28T01:53:58;100062.13;;;11.42;69.21
17060;BME280;8646;49.716;9.266;2023-04-28T01:57:02;100071.91;;;11.45;68.93
17060;BME280;8646;49.716;9.266;2023-04-28T02:00:07;100066.88;;;11.37;69.02
17060;BME280;8646;49.716;9.266;2023-04-28T02:03:10;100055.34;;;11.34;68.84
17060;BME280;8646;49.716;9.266;2023-04-28T02:06:14;100051.50;;;11.38;68.97
17060;BME280;8646;49.716;9.266;2023-04-28T02:09:16;100044.34;;;11.54;68.51
17060;BME280;8646;49.716;9.266;2023-04-28T02:12:20;100047.53;;;11.62;68.03
17060;BME280;8646;49.716;9.266;2023-04-28T02:15:23;100047.53;;;11.45;68.65
17060;BME280;8646;49.716;9.266;2023-04-28T02:18:26;100043.75;;;11.66;67.82
17060;BME280;8646;49.716;9.266;2023-04-28T02:21:29;100047.16;;;11.70;67.78
17060;BME280;8646;49.716;9.266;2023-04-28T02:24:34;100055.84;;;11.59;68.91
17060;BME280;8646;49.716;9.266;2023-04-28T02:27:38;100054.38;;;11.35;69.39
17060;BME280;8646;49.716;9.266;2023-04-28T02:30:41;100059.97;;;11.49;71.06
17060;BME280;8646;49.716;9.266;2023-04-28T02:33:43;100050.81;;;11.16;74.84
17060;BME280;8646;49.716;9.266;2023-04-28T02:36:46;100053.28;;;10.84;75.35
17060;BME280;8646;49.716;9.266;2023-04-28T02:39:50;100043.69;;;10.77;75.91
17060;BME280;8646;49.716;9.266;2023-04-28T02:42:55;100049.25;;;10.74;75.33
17060;BME280;8646;49.716;9.266;2023-04-28T02:45:57;100042.94;;;10.92;77.26
17060;BME280;8646;49.716;9.266;2023-04-28T02:49:01;100055.41;;;10.78;80.44
17060;BME280;8646;49.716;9.266;2023-04-28T02:52:04;100063.28;;;10.63;81.21
17060;BME280;8646;49.716;9.266;2023-04-28T02:55:07;100058.22;;;10.56;81.91
17060;BME280;8646;49.716;9.266;2023-04-28T02:58:13;100057.44;;;10.54;81.71
17060;BME280;8646;49.716;9.266;2023-04-28T03:01:16;100058.47;;;10.70;81.77
17060;BME280;8646;49.716;9.266;2023-04-28T03:04:19;100054.06;;;10.67;81.12
17060;BME280;8646;49.716;9.266;2023-04-28T03:07:23;100066.06;;;10.62;80.84
17060;BME280;8646;49.716;9.266;2023-04-28T03:10:26;100060.03;;;10.55;81.22
17060;BME280;8646;49.716;9.266;2023-04-28T03:13:30;100057.16;;;10.60;81.11
17060;BME280;8646;49.716;9.266;2023-04-28T03:16:33;100063.09;;;10.48;81.60
17060;BME280;8646;49.716;9.266;2023-04-28T03:19:36;100060.34;;;10.49;81.55
17060;BME280;8646;49.716;9.266;2023-04-28T03:22:38;100057.44;;;10.54;81.38
17060;BME280;8646;49.716;9.266;2023-04-28T03:25:41;100041.47;;;10.48;81.52
17060;BME280;8646;49.716;9.266;2023-04-28T03:28:45;100043.38;;;10.46;81.36
17060;BME280;8646;49.716;9.266;2023-04-28T03:31:48;100032.47;;;10.47;81.48
17060;BME280;8646;49.716;9.266;2023-04-28T03:34:51;100031.47;;;10.50;81.63
17060;BME280;8646;49.716;9.266;2023-04-28T03:37:54;100029.72;;;10.67;82.51
17060;BME280;8646;49.716;9.266;2023-04-28T03:40:57;100023.06;;;10.75;83.56
17060;BME280;8646;49.716;9.266;2023-04-28T03:44:01;100023.72;;;10.61;83.74
17060;BME280;8646;49.716;9.266;2023-04-28T03:47:03;100018.38;;;10.59;84.24
17060;BME280;8646;49.716;9.266;2023-04-28T03:50:07;100009.75;;;10.51;84.42
17060;BME280;8646;49.716;9.266;2023-04-28T03:53:10;100019.56;;;10.54;84.21
17060;BME280;8646;49.716;9.266;2023-04-28T03:56:12;100017.63;;;10.56;84.00
17060;BME280;8646;49.716;9.266;2023-04-28T03:59:16;100010.25;;;10.59;83.87
17060;BME280;8646;49.716;9.266;2023-04-28T04:02:19;100013.69;;;10.63;83.50
17060;BME280;8646;49.716;9.266;2023-04-28T04:05:22;100008.88;;;10.69;83.45
17060;BME280;8646;49.716;9.266;2023-04-28T04:08:27;99999.66;;;10.74;82.99
17060;BME280;8646;49.716;9.266;2023-04-28T04:11:30;99995.69;;;10.81;82.68
17060;BME280;8646;49.716;9.266;2023-04-28T04:14:34;99995.53;;;11.02;82.77
17060;BME280;8646;49.716;9.266;2023-04-28T04:17:37;99992.41;;;10.93;82.89
17060;BME280;8646;49.716;9.266;2023-04-28T04:20:40;99991.66;;;10.89;82.91
17060;BME280;8646;49.716;9.266;2023-04-28T04:23:43;99986.31;;;10.88;82.86
17060;BME280;8646;49.716;9.266;2023-04-28T04:26:46;99981.63;;;10.91;82.43
17060;BME280;8646;49.716;9.266;2023-04-28T04:29:50;99973.19;;;10.97;82.59
17060;BME280;8646;49.716;9.266;2023-04-28T04:32:53;99972.00;;;11.03;82.35
17060;BME280;8646;49.716;9.266;2023-04-28T04:35:55;99966.94;;;11.14;82.77
17060;BME280;8646;49.716;9.266;2023-04-28T04:38:58;99961.03;;;11.06;82.85
17060;BME280;8646;49.716;9.266;2023-04-28T04:42:01;99964.75;;;11.03;82.77
17060;BME280;8646;49.716;9.266;2023-04-28T04:45:25;99961.66;;;11.11;82.78
17060;BME280;8646;49.716;9.266;2023-04-28T04:48:28;99962.31;;;10.99;83.31
17060;BME280;8646;49.716;9.266;2023-04-28T04:51:31;99964.00;;;10.83;83.87
17060;BME280;8646;49.716;9.266;2023-04-28T04:54:34;99964.41;;;10.75;83.88
17060;BME280;8646;49.716;9.266;2023-04-28T04:57:37;99966.97;;;10.78;83.59
17060;BME280;8646;49.716;9.266;2023-04-28T05:00:41;99969.13;;;10.89;83.46
17060;BME280;8646;49.716;9.266;2023-04-28T05:03:44;99962.75;;;10.90;83.94
17060;BME280;8646;49.716;9.266;2023-04-28T05:06:47;99973.59;;;10.90;83.54
17060;BME280;8646;49.716;9.266;2023-04-28T05:09:50;99946.50;;;10.90;83.44
17060;BME280;8646;49.716;9.266;2023-04-28T05:12:52;99958.25;;;11.07;83.64
17060;BME280;8646;49.716;9.266;2023-04-28T05:15:57;99962.72;;;11.08;84.12
17060;BME280;8646;49.716;9.266;2023-04-28T05:19:00;99955.22;;;11.14;84.12
17060;BME280;8646;49.716;9.266;2023-04-28T05:22:02;99956.53;;;10.88;85.06
17060;BME280;8646;49.716;9.266;2023-04-28T05:25:06;99956.06;;;10.97;85.56
17060;BME280;8646;49.716;9.266;2023-04-28T05:28:09;99966.94;;;11.14;86.14
17060;BME280;8646;49.716;9.266;2023-04-28T05:31:13;99956.81;;;11.00;86.95
17060;BME280;8646;49.716;9.266;2023-04-28T05:34:16;99971.78;;;10.71;88.21
17060;BME280;8646;49.716;9.266;2023-04-28T05:37:19;99964.53;;;10.72;88.32
17060;BME280;8646;49.716;9.266;2023-04-28T05:40:22;99968.78;;;10.78;88.30
17060;BME280;8646;49.716;9.266;2023-04-28T05:43:25;99977.28;;;10.70;88.68
17060;BME280;8646;49.716;9.266;2023-04-28T05:46:29;99969.94;;;10.72;88.91
17060;BME280;8646;49.716;9.266;2023-04-28T05:49:32;99965.09;;;10.79;88.17
17060;BME280;8646;49.716;9.266;2023-04-28T05:52:35;99959.56;;;10.82;88.55
17060;BME280;8646;49.716;9.266;2023-04-28T05:55:38;99953.94;;;10.86;89.00
17060;BME280;8646;49.716;9.266;2023-04-28T05:58:41;99953.13;;;10.84;89.06
17060;BME280;8646;49.716;9.266;2023-04-28T06:01:46;99958.84;;;10.78;89.61
17060;BME280;8646;49.716;9.266;2023-04-28T06:04:50;99961.19;;;10.67;91.71
17060;BME280;8646;49.716;9.266;2023-04-28T06:07:53;99951.63;;;10.60;93.52
17060;BME280;8646;49.716;9.266;2023-04-28T06:10:56;99954.75;;;10.51;96.63
17060;BME280;8646;49.716;9.266;2023-04-28T06:13:59;99951.84;;;10.37;98.25
17060;BME280;8646;49.716;9.266;2023-04-28T06:17:03;99949.06;;;10.19;99.76
17060;BME280;8646;49.716;9.266;2023-04-28T06:20:07;99948.88;;;10.04;100.00
17060;BME280;8646;49.716;9.266;2023-04-28T06:23:11;99948.00;;;10.03;100.00
17060;BME280;8646;49.716;9.266;2023-04-28T06:26:14;99950.88;;;9.99;100.00
17060;BME280;8646;49.716;9.266;2023-04-28T06:29:18;99951.03;;;9.95;100.00
17060;BME280;8646;49.716;9.266;2023-04-28T06:32:25;99958.22;;;9.97;100.00
17060;BME280;8646;49.716;9.266;2023-04-28T06:35:28;99956.81;;;9.88;100.00
17060;BME280;8646;49.716;9.266;2023-04-28T06:38:31;99931.44;;;9.72;100.00
17060;BME280;8646;49.716;9.266;2023-04-28T06:41:33;99957.75;;;9.87;100.00
17060;BME280;8646;49.716;9.266;2023-04-28T06:44:36;99968.91;;;9.79;100.00
17060;BME280;8646;49.716;9.266;2023-04-28T06:47:40;99958.34;;;9.93;100.00
17060;BME280;8646;49.716;9.266;2023-04-28T06:50:43;99957.47;;;9.93;100.00
17060;BME280;8646;49.716;9.266;2023-04-28T06:53:46;99960.56;;;10.04;100.00
17060;BME280;8646;49.716;9.266;2023-04-28T06:56:52;99966.44;;;9.93;100.00
17060;BME280;8646;49.716;9.266;2023-04-28T06:59:54;99976.16;;;9.98;100.00
17060;BME280;8646;49.716;9.266;2023-04-28T07:02:59;99982.72;;;9.92;100.00
17060;BME280;8646;49.716;9.266;2023-04-28T07:06:03;99971.44;;;9.82;100.00
17060;BME280;8646;49.716;9.266;2023-04-28T07:09:07;99978.56;;;9.85;100.00
17060;BME280;8646;49.716;9.266;2023-04-28T07:12:12;99974.31;;;9.79;100.00
17060;BME280;8646;49.716;9.266;2023-04-28T07:15:15;99970.84;;;9.76;100.00
17060;BME280;8646;49.716;9.266;2023-04-28T07:18:20;99980.06;;;9.72;100.00
17060;BME280;8646;49.716;9.266;2023-04-28T07:21:22;99979.31;;;9.68;100.00
17060;BME280;8646;49.716;9.266;2023-04-28T07:24:25;99966.34;;;9.76;100.00
17060;BME280;8646;49.716;9.266;2023-04-28T07:27:28;99976.19;;;9.77;100.00
17060;BME280;8646;49.716;9.266;2023-04-28T07:30:31;99958.88;;;9.81;100.00
17060;BME280;8646;49.716;9.266;2023-04-28T07:33:36;99967.97;;;9.80;100.00
17060;BME280;8646;49.716;9.266;2023-04-28T07:36:39;99974.09;;;9.84;100.00
17060;BME280;8646;49.716;9.266;2023-04-28T07:39:42;99947.28;;;9.59;100.00
17060;BME280;8646;49.716;9.266;2023-04-28T07:42:44;99960.63;;;9.64;100.00
17060;BME280;8646;49.716;9.266;2023-04-28T07:45:47;99962.00;;;9.92;100.00
17060;BME280;8646;49.716;9.266;2023-04-28T07:48:53;99950.53;;;9.87;100.00
17060;BME280;8646;49.716;9.266;2023-04-28T07:51:56;99963.63;;;9.97;100.00
17060;BME280;8646;49.716;9.266;2023-04-28T07:54:59;99969.22;;;9.92;100.00
17060;BME280;8646;49.716;9.266;2023-04-28T07:58:03;99970.03;;;9.94;100.00
17060;BME280;8646;49.716;9.266;2023-04-28T08:01:06;99968.94;;;9.98;100.00
17060;BME280;8646;49.716;9.266;2023-04-28T08:04:10;99972.31;;;10.03;100.00
17060;BME280;8646;49.716;9.266;2023-04-28T08:07:14;99958.22;;;9.97;100.00
17060;BME280;8646;49.716;9.266;2023-04-28T08:10:17;99939.94;;;10.02;100.00
17060;BME280;8646;49.716;9.266;2023-04-28T08:13:19;99953.44;;;10.22;100.00
17060;BME280;8646;49.716;9.266;2023-04-28T08:16:22;99957.53;;;10.30;100.00
17060;BME280;8646;49.716;9.266;2023-04-28T08:19:27;99956.56;;;10.31;100.00
17060;BME280;8646;49.716;9.266;2023-04-28T08:22:30;99947.44;;;10.34;100.00
17060;BME280;8646;49.716;9.266;2023-04-28T08:25:33;99937.78;;;10.66;100.00
17060;BME280;8646;49.716;9.266;2023-04-28T08:28:36;99940.84;;;10.77;100.00
17060;BME280;8646;49.716;9.266;2023-04-28T08:31:39;99933.22;;;10.85;100.00
17060;BME280;8646;49.716;9.266;2023-04-28T08:34:43;99932.28;;;11.03;100.00
17060;BME280;8646;49.716;9.266;2023-04-28T08:37:46;99932.94;;;11.26;100.00
17060;BME280;8646;49.716;9.266;2023-04-28T08:40:50;99920.75;;;11.34;100.00
17060;BME280;8646;49.716;9.266;2023-04-28T08:43:53;99924.50;;;11.49;100.00
17060;BME280;8646;49.716;9.266;2023-04-28T08:46:58;99936.84;;;11.37;100.00
17060;BME280;8646;49.716;9.266;2023-04-28T08:50:06;99929.72;;;11.52;100.00
17060;BME280;8646;49.716;9.266;2023-04-28T08:53:09;99928.84;;;11.52;100.00
17060;BME280;8646;49.716;9.266;2023-04-28T08:56:17;99927.91;;;11.53;100.00
17060;BME280;8646;49.716;9.266;2023-04-28T08:59:23;99919.69;;;11.54;100.00
17060;BME280;8646;49.716;9.266;2023-04-28T09:02:27;99907.78;;;11.24;100.00
17060;BME280;8646;49.716;9.266;2023-04-28T09:05:31;99945.38;;;11.47;100.00
17060;BME280;8646;49.716;9.266;2023-04-28T09:08:34;99936.13;;;11.34;100.00
17060;BME280;8646;49.716;9.266;2023-04-28T09:11:49;99945.84;;;11.38;100.00
17060;BME280;8646;49.716;9.266;2023-04-28T09:14:56;99942.50;;;11.33;100.00
17060;BME280;8646;49.716;9.266;2023-04-28T09:18:05;99948.72;;;11.35;100.00
17060;BME280;8646;49.716;9.266;2023-04-28T09:21:10;99938.28;;;11.44;100.00
17060;BME280;8646;49.716;9.266;2023-04-28T09:24:27;99947.53;;;11.40;100.00
17060;BME280;8646;49.716;9.266;2023-04-28T09:27:30;99933.16;;;11.56;100.00
17060;BME280;8646;49.716;9.266;2023-04-28T09:30:39;99926.88;;;11.55;100.00
17060;BME280;8646;49.716;9.266;2023-04-28T09:33:55;99921.78;;;11.66;100.00
17060;BME280;8646;49.716;9.266;2023-04-28T09:37:13;99933.25;;;11.89;100.00
17060;BME280;8646;49.716;9.266;2023-04-28T09:40:16;99942.63;;;11.99;100.00
17060;BME280;8646;49.716;9.266;2023-04-28T09:43:24;99933.84;;;11.94;100.00
17060;BME280;8646;49.716;9.266;2023-04-28T09:46:28;99931.91;;;12.13;100.00
17060;BME280;8646;49.716;9.266;2023-04-28T09:49:30;99927.88;;;12.20;100.00
17060;BME280;8646;49.716;9.266;2023-04-28T09:52:35;99896.50;;;12.32;100.00
17060;BME280;8646;49.716;9.266;2023-04-28T09:55:40;99918.66;;;12.55;100.00
17060;BME280;8646;49.716;9.266;2023-04-28T09:58:46;99925.81;;;12.72;99.27
17060;BME280;8646;49.716;9.266;2023-04-28T10:01:52;99920.72;;;12.82;99.96
17060;BME280;8646;49.716;9.266;2023-04-28T10:04:55;99918.84;;;12.98;98.61
17060;BME280;8646;49.716;9.266;2023-04-28T10:08:01;99906.69;;;13.05;95.37
17060;BME280;8646;49.716;9.266;2023-04-28T10:11:04;99915.09;;;13.00;97.05
17060;BME280;8646;49.716;9.266;2023-04-28T10:14:07;99919.00;;;13.11;95.45
17060;BME280;8646;49.716;9.266;2023-04-28T10:17:12;99901.38;;;12.88;95.29
17060;BME280;8646;49.716;9.266;2023-04-28T10:20:15;99913.66;;;13.09;96.52
17060;BME280;8646;49.716;9.266;2023-04-28T10:23:54;99907.72;;;13.18;94.84
17060;BME280;8646;49.716;9.266;2023-04-28T10:27:03;99921.44;;;13.31;94.28
17060;BME280;8646;49.716;9.266;2023-04-28T10:30:11;99913.44;;;13.44;93.30
17060;BME280;8646;49.716;9.266;2023-04-28T10:33:28;99907.78;;;13.47;93.95
17060;BME280;8646;49.716;9.266;2023-04-28T10:36:53;99905.84;;;13.49;94.54
17060;BME280;8646;49.716;9.266;2023-04-28T10:40:32;99907.72;;;13.62;95.31
17060;BME280;8646;49.716;9.266;2023-04-28T10:43:36;99898.72;;;13.76;93.93
17060;BME280;8646;49.716;9.266;2023-04-28T10:46:58;99892.72;;;13.85;93.42
17060;BME280;8646;49.716;9.266;2023-04-28T10:50:07;99899.91;;;13.86;92.51
17060;BME280;8646;49.716;9.266;2023-04-28T10:53:10;99892.50;;;13.74;93.00
17060;BME280;8646;49.716;9.266;2023-04-28T10:56:17;99901.22;;;13.65;93.39
17060;BME280;8646;49.716;9.266;2023-04-28T10:59:25;99899.28;;;13.53;94.47
17060;BME280;8646;49.716;9.266;2023-04-28T11:02:41;99891.88;;;13.55;93.34
17060;BME280;8646;49.716;9.266;2023-04-28T11:06:18;99894.56;;;13.41;93.95
17060;BME280;8646;49.716;9.266;2023-04-28T11:09:47;99894.94;;;13.20;95.52
17060;BME280;8646;49.716;9.266;2023-04-28T11:13:26;99896.84;;;13.18;95.68
17060;BME280;8646;49.716;9.266;2023-04-28T11:16:32;99896.00;;;13.32;96.07
17060;BME280;8646;49.716;9.266;2023-04-28T11:19:37;99897.84;;;13.31;96.20
17060;BME280;8646;49.716;9.266;2023-04-28T11:22:40;99882.56;;;13.45;95.23
17060;BME280;8646;49.716;9.266;2023-04-28T11:25:52;99892.81;;;13.40;95.20
17060;BME280;8646;49.716;9.266;2023-04-28T11:28:57;99894.19;;;13.47;95.35
17060;BME280;8646;49.716;9.266;2023-04-28T11:32:00;99883.84;;;13.53;94.82
17060;BME280;8646;49.716;9.266;2023-04-28T11:35:04;99887.22;;;13.57;94.19
17060;BME280;8646;49.716;9.266;2023-04-28T11:38:13;99886.84;;;13.63;93.99
17060;BME280;8646;49.716;9.266;2023-04-28T11:41:16;99890.25;;;13.66;94.03
17060;BME280;8646;49.716;9.266;2023-04-28T11:44:21;99886.28;;;13.72;94.69
17060;BME280;8646;49.716;9.266;2023-04-28T11:47:28;99889.13;;;13.85;93.97
17060;BME280;8646;49.716;9.266;2023-04-28T11:50:35;99889.47;;;13.79;94.85
17060;BME280;8646;49.716;9.266;2023-04-28T11:53:41;99887.63;;;13.65;95.32
17060;BME280;8646;49.716;9.266;2023-04-28T11:56:44;99900.03;;;13.55;95.68
17060;BME280;8646;49.716;9.266;2023-04-28T11:59:49;99902.19;;;13.50;96.46
17060;BME280;8646;49.716;9.266;2023-04-28T12:02:52;99901.31;;;13.49;96.81
17060;BME280;8646;49.716;9.266;2023-04-28T12:05:55;99883.31;;;13.47;96.87
17060;BME280;8646;49.716;9.266;2023-04-28T12:09:14;99896.88;;;13.32;98.11
17060;BME280;8646;49.716;9.266;2023-04-28T12:12:27;99901.13;;;13.22;99.35
17060;BME280;8646;49.716;9.266;2023-04-28T12:15:47;99895.59;;;13.24;98.77
17060;BME280;8646;49.716;9.266;2023-04-28T12:18:57;99901.91;;;13.24;99.83
17060;BME280;8646;49.716;9.266;2023-04-28T12:22:03;99906.50;;;13.38;98.82
17060;BME280;8646;49.716;9.266;2023-04-28T12:25:07;99898.66;;;13.33;99.40
17060;BME280;8646;49.716;9.266;2023-04-28T12:28:11;99907.03;;;13.45;98.99
17060;BME280;8646;49.716;9.266;2023-04-28T12:31:16;99897.63;;;13.64;98.03
17060;BME280;8646;49.716;9.266;2023-04-28T12:34:18;99889.69;;;13.75;97.91
17060;BME280;8646;49.716;9.266;2023-04-28T12:37:21;99896.00;;;13.76;97.47
17060;BME280;8646;49.716;9.266;2023-04-28T12:40:24;99887.94;;;13.89;97.39
17060;BME280;8646;49.716;9.266;2023-04-28T12:43:27;99877.38;;;13.84;96.87
17060;BME280;8646;49.716;9.266;2023-04-28T12:46:32;99897.66;;;14.07;96.85
17060;BME280;8646;49.716;9.266;2023-04-28T12:49:35;99879.97;;;14.14;95.28
17060;BME280;8646;49.716;9.266;2023-04-28T12:52:38;99884.25;;;14.18;95.40
17060;BME280;8646;49.716;9.266;2023-04-28T12:55:41;99891.34;;;14.06;96.14
17060;BME280;8646;49.716;9.266;2023-04-28T12:58:44;99892.91;;;14.10;97.20
17060;BME280;8646;49.716;9.266;2023-04-28T13:01:49;99887.53;;;13.95;99.71
17060;BME280;8646;49.716;9.266;2023-04-28T13:04:51;99887.38;;;13.98;100.00
17060;BME280;8646;49.716;9.266;2023-04-28T13:07:54;99886.47;;;14.11;100.00
17060;BME280;8646;49.716;9.266;2023-04-28T13:10:57;99883.09;;;14.08;100.00
17060;BME280;8646;49.716;9.266;2023-04-28T13:14:01;99875.59;;;14.11;100.00
17060;BME280;8646;49.716;9.266;2023-04-28T13:17:07;99873.47;;;14.17;100.00
17060;BME280;8646;49.716;9.266;2023-04-28T13:20:11;99867.94;;;14.18;100.00
17060;BME280;8646;49.716;9.266;2023-04-28T13:23:13;99868.59;;;14.22;100.00
17060;BME280;8646;49.716;9.266;2023-04-28T13:26:17;99864.03;;;14.22;100.00
17060;BME280;8646;49.716;9.266;2023-04-28T13:29:21;99859.94;;;14.29;100.00
17060;BME280;8646;49.716;9.266;2023-04-28T13:32:25;99859.66;;;14.34;100.00
17060;BME280;8646;49.716;9.266;2023-04-28T13:35:29;99858.19;;;14.42;100.00
17060;BME280;8646;49.716;9.266;2023-04-28T13:38:32;99861.44;;;14.62;100.00
17060;BME280;8646;49.716;9.266;2023-04-28T13:41:35;99851.50;;;14.75;100.00
17060;BME280;8646;49.716;9.266;2023-04-28T13:44:38;99848.28;;;14.95;100.00
17060;BME280;8646;49.716;9.266;2023-04-28T13:47:42;99839.16;;;15.09;100.00
17060;BME280;8646;49.716;9.266;2023-04-28T13:50:45;99830.03;;;15.22;100.00
17060;BME280;8646;49.716;9.266;2023-04-28T13:53:48;99830.03;;;15.35;100.00
17060;BME280;8646;49.716;9.266;2023-04-28T13:56:50;99830.63;;;15.40;99.71
17060;BME280;8646;49.716;9.266;2023-04-28T13:59:53;99830.03;;;15.35;99.85
17060;BME280;8646;49.716;9.266;2023-04-28T14:02:58;99820.88;;;15.36;100.00
17060;BME280;8646;49.716;9.266;2023-04-28T14:06:02;99814.25;;;15.40;99.68
17060;BME280;8646;49.716;9.266;2023-04-28T14:09:05;99809.53;;;15.42;99.93
17060;BME280;8646;49.716;9.266;2023-04-28T14:12:08;99819.91;;;15.50;99.71
17060;BME280;8646;49.716;9.266;2023-04-28T14:15:12;99799.72;;;15.52;99.15
17060;BME280;8646;49.716;9.266;2023-04-28T14:18:17;99791.22;;;15.44;99.88
17060;BME280;8646;49.716;9.266;2023-04-28T14:21:20;99789.56;;;15.42;100.00
17060;BME280;8646;49.716;9.266;2023-04-28T14:24:23;99798.88;;;15.39;100.00
17060;BME280;8646;49.716;9.266;2023-04-28T14:27:26;99792.44;;;15.40;100.00
17060;BME280;8646;49.716;9.266;2023-04-28T14:30:29;99801.47;;;15.41;100.00
17060;BME280;8646;49.716;9.266;2023-04-28T14:33:34;99794.50;;;15.37;100.00
17060;BME280;8646;49.716;9.266;2023-04-28T14:36:37;99791.09;;;15.33;100.00
17060;BME280;8646;49.716;9.266;2023-04-28T14:39:42;99798.19;;;15.36;100.00
17060;BME280;8646;49.716;9.266;2023-04-28T14:42:45;99794.28;;;15.40;100.00
17060;BME280;8646;49.716;9.266;2023-04-28T14:45:48;99792.78;;;15.48;100.00
17060;BME280;8646;49.716;9.266;2023-04-28T14:48:53;99774.41;;;15.50;100.00
17060;BME280;8646;49.716;9.266;2023-04-28T14:51:56;99768.78;;;15.66;100.00
17060;BME280;8646;49.716;9.266;2023-04-28T14:55:02;99770.94;;;15.86;100.00
17060;BME280;8646;49.716;9.266;2023-04-28T14:58:05;99753.03;;;15.95;100.00
17060;BME280;8646;49.716;9.266;2023-04-28T15:01:08;99766.72;;;16.06;100.00
17060;BME280;8646;49.716;9.266;2023-04-28T15:04:12;99776.59;;;15.96;100.00
17060;BME280;8646;49.716;9.266;2023-04-28T15:07:15;99781.19;;;15.95;100.00
17060;BME280;8646;49.716;9.266;2023-04-28T15:10:18;99786.06;;;16.03;100.00
17060;BME280;8646;49.716;9.266;2023-04-28T15:13:21;99790.91;;;16.23;100.00
17060;BME280;8646;49.716;9.266;2023-04-28T15:16:25;99775.03;;;16.41;100.00
17060;BME280;8646;49.716;9.266;2023-04-28T15:19:30;99771.50;;;16.52;100.00
17060;BME280;8646;49.716;9.266;2023-04-28T15:22:33;99771.56;;;16.63;100.00
17060;BME280;8646;49.716;9.266;2023-04-28T15:25:36;99767.19;;;16.60;100.00
17060;BME280;8646;49.716;9.266;2023-04-28T15:28:39;99770.69;;;16.62;100.00
17060;BME280;8646;49.716;9.266;2023-04-28T15:31:42;99750.16;;;16.81;100.00
17060;BME280;8646;49.716;9.266;2023-04-28T15:34:47;99752.34;;;16.99;99.46
17060;BME280;8646;49.716;9.266;2023-04-28T15:37:50;99753.47;;;17.08;98.65
17060;BME280;8646;49.716;9.266;2023-04-28T15:40:53;99743.44;;;17.08;98.10
17060;BME280;8646;49.716;9.266;2023-04-28T15:43:56;99735.94;;;16.99;98.83
17060;BME280;8646;49.716;9.266;2023-04-28T15:47:01;99730.09;;;16.93;98.98
17060;BME280;8646;49.716;9.266;2023-04-28T15:50:06;99742.13;;;16.90;99.23
17060;BME280;8646;49.716;9.266;2023-04-28T15:53:11;99734.69;;;16.92;99.45
17060;BME280;8646;49.716;9.266;2023-04-28T15:56:13;99742.88;;;16.92;99.62
17060;BME280;8646;49.716;9.266;2023-04-28T15:59:19;99741.28;;;17.01;99.60
17060;BME280;8646;49.716;9.266;2023-04-28T16:02:22;99741.63;;;17.42;98.36
17060;BME280;8646;49.716;9.266;2023-04-28T16:05:28;99734.19;;;17.78;97.35
17060;BME280;8646;49.716;9.266;2023-04-28T16:08:31;99731.81;;;17.96;95.87
17060;BME280;8646;49.716;9.266;2023-04-28T16:11:33;99744.75;;;18.05;94.98
17060;BME280;8646;49.716;9.266;2023-04-28T16:14:39;99743.47;;;18.09;94.50
17060;BME280;8646;49.716;9.266;2023-04-28T16:17:41;99722.97;;;18.14;93.84
17060;BME280;8646;49.716;9.266;2023-04-28T16:20:46;99719.59;;;18.11;93.51
17060;BME280;8646;49.716;9.266;2023-04-28T16:23:49;99716.09;;;18.09;93.10